Minatitlan Airport
MMMT : now visible

Airfield :











YOU CAN JOIN US ON...

 
LOGIN :

Register | Disclaimer

   EN    FR    IT 

 









Legend :    VFR   Marginal VFR   IFR   Intensive IFR   Very Intensive IFR
Visi :
Ceiling :
>= 8 km
>= 3000ft
5 to 8 km
1000 to 3000 ft
1500m to 5 km
500 to 1000 ft
800 to 1500m
200 to 500 ft
< 800m
< 200 ft
Symbols :   Thunderstorms  Fog  Heavy snow  Heavy precipitations  Wind > 20 kt






- Airport Elevation : 36 ft
- IATA code : MTT


MMMT - Minatitlan

CURRENT METAR :
  • 141642Z 34006KT 5SM BKN040 BKN120 28/24 A2992 RMK 8/420

EXPIRED METARs :
  • 141551Z 34003KT 6SM BKN040 OVC140 27/25 A2993 RMK 8/42/
  • 141448Z 32005KT 5SM BKN040 OVC120 26/24 A2992 RMK SLP207 52004 904 8/72/ CB 6 SM NE

TAF TAF MMMT
Valid from the 14 at 18:00 until the 15 at 18:00 UTC


141728Z 1418/1518 02010KT 6SM HZ BKN040 BKN120
FM142100 36015KT 6SM HZ BKN030CB BKN120
TEMPO 1422/1502 5SM TSRA
FM150300 36008KT P6SM SCT030 BKN100
BECMG 1505/1506 33006KT
FM151000 33005KT 5SM HZ BKN020 BKN080
TEMPO 1511/1515 3SM BR HZ



MET'MAP, your aeronautical weather chart ! - Copyright ORBIFLY December 2007 - Disclaimer

ORBIFLY MET'MAP TEAM :

Programming & Development : Alexandra Zaïnal
Concept & Development : Baudouin d'Aumeries
Co-Development & Prog : Marc-Olivier Méhu
Technical & hardware support : Manuel Goepfert

Contact : metmap@orbifly.com




SOURCES & CREDITS :

   NOAA       Earth
Advisory